sensor_id;sensor_type;location;lat;lon;timestamp;temperature;humidity
35692;DHT22;26978;44.830;-0.674;2022-11-09T00:02:14;12.80;99.90
35692;DHT22;26978;44.830;-0.674;2022-11-09T00:04:40;12.70;99.90
35692;DHT22;26978;44.830;-0.674;2022-11-09T00:07:05;12.70;99.90
35692;DHT22;26978;44.830;-0.674;2022-11-09T00:09:31;12.70;99.90
35692;DHT22;26978;44.830;-0.674;2022-11-09T00:11:56;12.70;99.90
35692;DHT22;26978;44.830;-0.674;2022-11-09T00:14:22;12.80;99.90
35692;DHT22;26978;44.830;-0.674;2022-11-09T00:16:47;12.90;99.90
35692;DHT22;26978;44.830;-0.674;2022-11-09T00:19:13;12.80;99.90
35692;DHT22;26978;44.830;-0.674;2022-11-09T00:21:39;12.80;99.90
35692;DHT22;26978;44.830;-0.674;2022-11-09T00:24:04;12.90;99.90
35692;DHT22;26978;44.830;-0.674;2022-11-09T00:26:30;13.10;99.90
35692;DHT22;26978;44.830;-0.674;2022-11-09T00:28:55;13.10;99.90
35692;DHT22;26978;44.830;-0.674;2022-11-09T00:31:22;13.10;99.90
35692;DHT22;26978;44.830;-0.674;2022-11-09T00:33:51;13.10;99.90
35692;DHT22;26978;44.830;-0.674;2022-11-09T00:36:17;13.00;99.90
35692;DHT22;26978;44.830;-0.674;2022-11-09T00:38:46;13.10;99.90
35692;DHT22;26978;44.830;-0.674;2022-11-09T00:41:12;13.10;99.90
35692;DHT22;26978;44.830;-0.674;2022-11-09T00:43:37;13.10;99.90
35692;DHT22;26978;44.830;-0.674;2022-11-09T00:46:03;13.10;99.90
35692;DHT22;26978;44.830;-0.674;2022-11-09T00:48:28;13.10;99.90
35692;DHT22;26978;44.830;-0.674;2022-11-09T00:50:54;13.10;99.90
35692;DHT22;26978;44.830;-0.674;2022-11-09T00:53:20;13.10;99.90
35692;DHT22;26978;44.830;-0.674;2022-11-09T00:55:56;13.10;99.90
35692;DHT22;26978;44.830;-0.674;2022-11-09T00:58:22;13.10;99.90
35692;DHT22;26978;44.830;-0.674;2022-11-09T01:00:48;13.00;99.90
35692;DHT22;26978;44.830;-0.674;2022-11-09T01:03:13;13.10;99.90
35692;DHT22;26978;44.830;-0.674;2022-11-09T01:05:39;13.10;99.90
35692;DHT22;26978;44.830;-0.674;2022-11-09T01:08:05;13.10;99.90
35692;DHT22;26978;44.830;-0.674;2022-11-09T01:10:30;13.10;99.90
35692;DHT22;26978;44.830;-0.674;2022-11-09T01:12:56;13.20;99.90
35692;DHT22;26978;44.830;-0.674;2022-11-09T01:15:21;13.30;99.90
35692;DHT22;26978;44.830;-0.674;2022-11-09T01:17:47;13.30;99.90
35692;DHT22;26978;44.830;-0.674;2022-11-09T01:20:13;13.40;99.90
35692;DHT22;26978;44.830;-0.674;2022-11-09T01:22:39;13.40;99.90
35692;DHT22;26978;44.830;-0.674;2022-11-09T01:25:04;13.40;99.90
35692;DHT22;26978;44.830;-0.674;2022-11-09T01:27:31;13.30;99.90
35692;DHT22;26978;44.830;-0.674;2022-11-09T01:29:56;13.30;99.90
35692;DHT22;26978;44.830;-0.674;2022-11-09T01:32:22;13.20;99.90
35692;DHT22;26978;44.830;-0.674;2022-11-09T01:34:47;13.10;99.90
35692;DHT22;26978;44.830;-0.674;2022-11-09T01:37:13;13.20;99.90
35692;DHT22;26978;44.830;-0.674;2022-11-09T01:39:38;13.30;99.90
35692;DHT22;26978;44.830;-0.674;2022-11-09T01:42:04;13.30;99.90
35692;DHT22;26978;44.830;-0.674;2022-11-09T01:44:29;13.30;99.90
35692;DHT22;26978;44.830;-0.674;2022-11-09T01:46:59;13.30;99.90
35692;DHT22;26978;44.830;-0.674;2022-11-09T01:51:56;13.40;99.90
35692;DHT22;26978;44.830;-0.674;2022-11-09T01:54:25;13.40;99.90
35692;DHT22;26978;44.830;-0.674;2022-11-09T01:56:52;13.40;99.90
35692;DHT22;26978;44.830;-0.674;2022-11-09T01:59:21;13.40;99.90
35692;DHT22;26978;44.830;-0.674;2022-11-09T02:01:46;13.40;99.90
35692;DHT22;26978;44.830;-0.674;2022-11-09T02:04:17;13.50;99.90
35692;DHT22;26978;44.830;-0.674;2022-11-09T02:06:45;13.50;99.90
35692;DHT22;26978;44.830;-0.674;2022-11-09T02:09:17;13.50;99.90
35692;DHT22;26978;44.830;-0.674;2022-11-09T02:11:43;13.40;99.90
35692;DHT22;26978;44.830;-0.674;2022-11-09T02:14:08;13.50;99.90
35692;DHT22;26978;44.830;-0.674;2022-11-09T02:16:34;13.40;99.90
35692;DHT22;26978;44.830;-0.674;2022-11-09T02:19:01;13.40;99.90
35692;DHT22;26978;44.830;-0.674;2022-11-09T02:21:27;13.40;99.90
35692;DHT22;26978;44.830;-0.674;2022-11-09T02:23:54;13.30;99.90
35692;DHT22;26978;44.830;-0.674;2022-11-09T02:26:42;13.30;99.90
35692;DHT22;26978;44.830;-0.674;2022-11-09T02:29:06;13.30;99.90
35692;DHT22;26978;44.830;-0.674;2022-11-09T02:31:33;13.30;99.90
35692;DHT22;26978;44.830;-0.674;2022-11-09T02:34:22;13.30;99.90
35692;DHT22;26978;44.830;-0.674;2022-11-09T02:36:45;13.30;99.90
35692;DHT22;26978;44.830;-0.674;2022-11-09T02:39:11;13.30;99.90
35692;DHT22;26978;44.830;-0.674;2022-11-09T02:44:33;13.40;99.90
35692;DHT22;26978;44.830;-0.674;2022-11-09T02:47:00;13.30;99.90
35692;DHT22;26978;44.830;-0.674;2022-11-09T02:49:25;13.30;99.90
35692;DHT22;26978;44.830;-0.674;2022-11-09T02:51:51;13.30;99.90
35692;DHT22;26978;44.830;-0.674;2022-11-09T02:54:16;13.30;99.90
35692;DHT22;26978;44.830;-0.674;2022-11-09T02:56:42;13.30;99.90
35692;DHT22;26978;44.830;-0.674;2022-11-09T02:59:07;13.40;99.90
35692;DHT22;26978;44.830;-0.674;2022-11-09T03:01:33;13.40;99.90
35692;DHT22;26978;44.830;-0.674;2022-11-09T03:03:59;13.40;99.90
35692;DHT22;26978;44.830;-0.674;2022-11-09T03:06:24;13.50;99.90
35692;DHT22;26978;44.830;-0.674;2022-11-09T03:09:02;13.50;99.90
35692;DHT22;26978;44.830;-0.674;2022-11-09T03:11:28;13.60;99.90
35692;DHT22;26978;44.830;-0.674;2022-11-09T03:13:53;13.70;99.90
35692;DHT22;26978;44.830;-0.674;2022-11-09T03:16:19;13.70;99.90
35692;DHT22;26978;44.830;-0.674;2022-11-09T03:18:44;13.70;99.90
35692;DHT22;26978;44.830;-0.674;2022-11-09T03:21:10;13.70;99.90
35692;DHT22;26978;44.830;-0.674;2022-11-09T03:23:35;13.70;99.90
35692;DHT22;26978;44.830;-0.674;2022-11-09T03:26:01;13.60;99.90
35692;DHT22;26978;44.830;-0.674;2022-11-09T03:28:26;13.60;99.90
35692;DHT22;26978;44.830;-0.674;2022-11-09T03:30:52;13.60;99.90
35692;DHT22;26978;44.830;-0.674;2022-11-09T03:33:17;13.50;99.90
35692;DHT22;26978;44.830;-0.674;2022-11-09T03:35:43;13.40;99.90
35692;DHT22;26978;44.830;-0.674;2022-11-09T03:38:09;13.40;99.90
35692;DHT22;26978;44.830;-0.674;2022-11-09T03:40:34;13.30;99.90
35692;DHT22;26978;44.830;-0.674;2022-11-09T03:43:00;13.30;99.90
35692;DHT22;26978;44.830;-0.674;2022-11-09T03:45:25;13.20;99.90
35692;DHT22;26978;44.830;-0.674;2022-11-09T03:47:52;13.10;99.90
35692;DHT22;26978;44.830;-0.674;2022-11-09T03:50:21;13.00;99.90
35692;DHT22;26978;44.830;-0.674;2022-11-09T03:52:46;13.00;99.90
35692;DHT22;26978;44.830;-0.674;2022-11-09T03:55:12;12.90;99.90
35692;DHT22;26978;44.830;-0.674;2022-11-09T03:57:38;12.80;99.90
35692;DHT22;26978;44.830;-0.674;2022-11-09T04:00:07;12.80;99.90
35692;DHT22;26978;44.830;-0.674;2022-11-09T04:02:33;12.90;99.90
35692;DHT22;26978;44.830;-0.674;2022-11-09T04:04:58;12.90;99.90
35692;DHT22;26978;44.830;-0.674;2022-11-09T04:07:24;13.00;99.90
35692;DHT22;26978;44.830;-0.674;2022-11-09T04:09:49;12.90;99.90
35692;DHT22;26978;44.830;-0.674;2022-11-09T04:12:15;12.90;99.90
35692;DHT22;26978;44.830;-0.674;2022-11-09T04:14:40;13.00;99.90
35692;DHT22;26978;44.830;-0.674;2022-11-09T04:17:06;13.00;99.90
35692;DHT22;26978;44.830;-0.674;2022-11-09T04:19:31;13.00;99.90
35692;DHT22;26978;44.830;-0.674;2022-11-09T04:21:57;12.90;99.90
35692;DHT22;26978;44.830;-0.674;2022-11-09T04:24:22;12.80;99.90
35692;DHT22;26978;44.830;-0.674;2022-11-09T04:26:48;12.90;99.90
35692;DHT22;26978;44.830;-0.674;2022-11-09T04:29:13;12.90;99.90
35692;DHT22;26978;44.830;-0.674;2022-11-09T04:31:39;12.90;99.90
35692;DHT22;26978;44.830;-0.674;2022-11-09T04:34:05;12.90;99.90
35692;DHT22;26978;44.830;-0.674;2022-11-09T04:36:30;12.90;99.90
35692;DHT22;26978;44.830;-0.674;2022-11-09T04:38:56;12.90;99.90
35692;DHT22;26978;44.830;-0.674;2022-11-09T04:41:21;12.90;99.90
35692;DHT22;26978;44.830;-0.674;2022-11-09T04:43:47;12.80;99.90
35692;DHT22;26978;44.830;-0.674;2022-11-09T04:46:12;12.70;99.90
35692;DHT22;26978;44.830;-0.674;2022-11-09T04:48:38;12.70;99.90
35692;DHT22;26978;44.830;-0.674;2022-11-09T04:51:07;12.70;99.90
35692;DHT22;26978;44.830;-0.674;2022-11-09T04:53:35;12.70;99.90
35692;DHT22;26978;44.830;-0.674;2022-11-09T04:56:01;12.70;99.90
35692;DHT22;26978;44.830;-0.674;2022-11-09T04:58:26;12.70;99.90
35692;DHT22;26978;44.830;-0.674;2022-11-09T05:00:52;12.80;99.90
35692;DHT22;26978;44.830;-0.674;2022-11-09T05:03:18;12.80;99.90
35692;DHT22;26978;44.830;-0.674;2022-11-09T05:05:44;12.80;99.90
35692;DHT22;26978;44.830;-0.674;2022-11-09T05:08:09;12.90;99.90
35692;DHT22;26978;44.830;-0.674;2022-11-09T05:10:35;12.90;99.90
35692;DHT22;26978;44.830;-0.674;2022-11-09T05:13:02;12.90;99.90
35692;DHT22;26978;44.830;-0.674;2022-11-09T05:15:28;12.90;99.90
35692;DHT22;26978;44.830;-0.674;2022-11-09T05:17:54;12.90;99.90
35692;DHT22;26978;44.830;-0.674;2022-11-09T05:20:19;12.90;99.90
35692;DHT22;26978;44.830;-0.674;2022-11-09T05:22:45;12.90;99.90
35692;DHT22;26978;44.830;-0.674;2022-11-09T05:25:29;12.90;99.90
35692;DHT22;26978;44.830;-0.674;2022-11-09T05:27:55;12.90;99.90
35692;DHT22;26978;44.830;-0.674;2022-11-09T05:30:20;12.90;99.90
35692;DHT22;26978;44.830;-0.674;2022-11-09T05:32:46;12.90;99.90
35692;DHT22;26978;44.830;-0.674;2022-11-09T05:35:11;12.90;99.90
35692;DHT22;26978;44.830;-0.674;2022-11-09T05:37:37;12.90;99.90
35692;DHT22;26978;44.830;-0.674;2022-11-09T05:40:03;12.80;99.90
35692;DHT22;26978;44.830;-0.674;2022-11-09T05:42:29;12.80;99.90
35692;DHT22;26978;44.830;-0.674;2022-11-09T05:44:54;12.80;99.90
35692;DHT22;26978;44.830;-0.674;2022-11-09T05:47:20;12.80;99.90
35692;DHT22;26978;44.830;-0.674;2022-11-09T05:49:46;12.80;99.90
35692;DHT22;26978;44.830;-0.674;2022-11-09T05:52:11;12.70;99.90
35692;DHT22;26978;44.830;-0.674;2022-11-09T05:54:37;12.80;99.90
35692;DHT22;26978;44.830;-0.674;2022-11-09T05:57:03;12.80;99.90
35692;DHT22;26978;44.830;-0.674;2022-11-09T05:59:28;12.80;99.90
35692;DHT22;26978;44.830;-0.674;2022-11-09T06:01:54;12.80;99.90
35692;DHT22;26978;44.830;-0.674;2022-11-09T06:04:19;12.90;99.90
35692;DHT22;26978;44.830;-0.674;2022-11-09T06:06:45;12.90;99.90
35692;DHT22;26978;44.830;-0.674;2022-11-09T06:09:10;12.90;99.90
35692;DHT22;26978;44.830;-0.674;2022-11-09T06:11:36;12.90;99.90
35692;DHT22;26978;44.830;-0.674;2022-11-09T06:14:01;13.00;99.90
35692;DHT22;26978;44.830;-0.674;2022-11-09T06:16:27;13.00;99.90
35692;DHT22;26978;44.830;-0.674;2022-11-09T06:18:53;13.00;99.90
35692;DHT22;26978;44.830;-0.674;2022-11-09T06:21:19;13.00;99.90
35692;DHT22;26978;44.830;-0.674;2022-11-09T06:23:45;13.10;99.90
35692;DHT22;26978;44.830;-0.674;2022-11-09T06:26:10;13.10;99.90
35692;DHT22;26978;44.830;-0.674;2022-11-09T06:28:36;13.10;99.90
35692;DHT22;26978;44.830;-0.674;2022-11-09T06:31:03;13.10;99.90
35692;DHT22;26978;44.830;-0.674;2022-11-09T06:33:29;13.20;99.90
35692;DHT22;26978;44.830;-0.674;2022-11-09T06:35:55;13.20;99.90
35692;DHT22;26978;44.830;-0.674;2022-11-09T06:38:21;13.20;99.90
35692;DHT22;26978;44.830;-0.674;2022-11-09T06:40:50;13.20;99.90
35692;DHT22;26978;44.830;-0.674;2022-11-09T06:43:15;13.20;99.90
35692;DHT22;26978;44.830;-0.674;2022-11-09T06:45:41;13.20;99.90
35692;DHT22;26978;44.830;-0.674;2022-11-09T06:48:08;13.20;99.90
35692;DHT22;26978;44.830;-0.674;2022-11-09T06:50:34;13.20;99.90
35692;DHT22;26978;44.830;-0.674;2022-11-09T06:53:00;13.20;99.90
35692;DHT22;26978;44.830;-0.674;2022-11-09T06:55:26;13.30;99.90
35692;DHT22;26978;44.830;-0.674;2022-11-09T06:57:51;13.30;99.90
35692;DHT22;26978;44.830;-0.674;2022-11-09T07:00:17;13.30;99.90
35692;DHT22;26978;44.830;-0.674;2022-11-09T07:02:43;13.30;99.90
35692;DHT22;26978;44.830;-0.674;2022-11-09T07:05:08;13.30;99.90
35692;DHT22;26978;44.830;-0.674;2022-11-09T07:07:34;13.40;99.90
35692;DHT22;26978;44.830;-0.674;2022-11-09T07:09:59;13.40;99.90
35692;DHT22;26978;44.830;-0.674;2022-11-09T07:12:25;13.40;99.90
35692;DHT22;26978;44.830;-0.674;2022-11-09T07:14:50;13.40;99.90
35692;DHT22;26978;44.830;-0.674;2022-11-09T07:17:16;13.50;99.90
35692;DHT22;26978;44.830;-0.674;2022-11-09T07:19:42;13.50;99.90
35692;DHT22;26978;44.830;-0.674;2022-11-09T07:22:07;13.50;99.90
35692;DHT22;26978;44.830;-0.674;2022-11-09T07:24:33;13.50;99.90
35692;DHT22;26978;44.830;-0.674;2022-11-09T07:26:58;13.50;99.90
35692;DHT22;26978;44.830;-0.674;2022-11-09T07:29:24;13.60;99.90
35692;DHT22;26978;44.830;-0.674;2022-11-09T07:31:49;13.60;99.90
35692;DHT22;26978;44.830;-0.674;2022-11-09T07:34:15;13.60;99.90
35692;DHT22;26978;44.830;-0.674;2022-11-09T07:36:40;13.70;99.90
35692;DHT22;26978;44.830;-0.674;2022-11-09T07:39:06;13.70;99.90
35692;DHT22;26978;44.830;-0.674;2022-11-09T07:41:31;13.80;99.90
35692;DHT22;26978;44.830;-0.674;2022-11-09T07:43:57;13.80;99.90
35692;DHT22;26978;44.830;-0.674;2022-11-09T07:46:23;13.80;99.90
35692;DHT22;26978;44.830;-0.674;2022-11-09T07:48:48;13.80;99.90
35692;DHT22;26978;44.830;-0.674;2022-11-09T07:51:14;13.90;99.90
35692;DHT22;26978;44.830;-0.674;2022-11-09T07:53:39;13.90;99.90
35692;DHT22;26978;44.830;-0.674;2022-11-09T07:56:05;13.90;99.90
35692;DHT22;26978;44.830;-0.674;2022-11-09T07:58:31;14.00;99.90
35692;DHT22;26978;44.830;-0.674;2022-11-09T08:00:57;14.00;99.90
35692;DHT22;26978;44.830;-0.674;2022-11-09T08:03:22;14.00;99.90
35692;DHT22;26978;44.830;-0.674;2022-11-09T08:05:48;14.00;99.90
35692;DHT22;26978;44.830;-0.674;2022-11-09T08:08:14;13.90;99.90
35692;DHT22;26978;44.830;-0.674;2022-11-09T08:10:41;13.90;99.90
35692;DHT22;26978;44.830;-0.674;2022-11-09T08:13:08;13.90;99.90
35692;DHT22;26978;44.830;-0.674;2022-11-09T08:15:34;13.90;99.90
35692;DHT22;26978;44.830;-0.674;2022-11-09T08:18:01;13.90;99.90
35692;DHT22;26978;44.830;-0.674;2022-11-09T08:20:29;14.00;99.90
35692;DHT22;26978;44.830;-0.674;2022-11-09T08:22:55;14.00;99.90
35692;DHT22;26978;44.830;-0.674;2022-11-09T08:25:20;14.00;99.90
35692;DHT22;26978;44.830;-0.674;2022-11-09T08:27:46;14.00;99.90
35692;DHT22;26978;44.830;-0.674;2022-11-09T08:30:12;14.00;99.90
35692;DHT22;26978;44.830;-0.674;2022-11-09T08:32:39;14.10;99.90
35692;DHT22;26978;44.830;-0.674;2022-11-09T08:35:05;14.10;99.90
35692;DHT22;26978;44.830;-0.674;2022-11-09T08:37:32;14.10;99.90
35692;DHT22;26978;44.830;-0.674;2022-11-09T08:39:58;14.20;99.90
35692;DHT22;26978;44.830;-0.674;2022-11-09T08:42:23;14.30;99.90
35692;DHT22;26978;44.830;-0.674;2022-11-09T08:44:49;14.40;99.90
35692;DHT22;26978;44.830;-0.674;2022-11-09T08:47:14;14.40;99.90
35692;DHT22;26978;44.830;-0.674;2022-11-09T08:49:40;14.50;99.90
35692;DHT22;26978;44.830;-0.674;2022-11-09T08:52:08;14.50;99.90
35692;DHT22;26978;44.830;-0.674;2022-11-09T08:54:34;14.60;99.90
35692;DHT22;26978;44.830;-0.674;2022-11-09T08:57:00;14.60;99.90
35692;DHT22;26978;44.830;-0.674;2022-11-09T08:59:25;14.70;99.90
35692;DHT22;26978;44.830;-0.674;2022-11-09T09:01:51;14.70;99.90
35692;DHT22;26978;44.830;-0.674;2022-11-09T09:04:16;14.80;99.90
35692;DHT22;26978;44.830;-0.674;2022-11-09T09:06:42;14.90;99.90
35692;DHT22;26978;44.830;-0.674;2022-11-09T09:09:07;14.90;99.90
35692;DHT22;26978;44.830;-0.674;2022-11-09T09:11:33;14.90;99.90
35692;DHT22;26978;44.830;-0.674;2022-11-09T09:13:58;14.90;99.90
35692;DHT22;26978;44.830;-0.674;2022-11-09T09:16:24;14.90;99.90
35692;DHT22;26978;44.830;-0.674;2022-11-09T09:18:49;14.90;99.90
35692;DHT22;26978;44.830;-0.674;2022-11-09T09:21:15;14.90;99.90
35692;DHT22;26978;44.830;-0.674;2022-11-09T09:23:40;14.90;99.90
35692;DHT22;26978;44.830;-0.674;2022-11-09T09:26:06;14.90;99.90
35692;DHT22;26978;44.830;-0.674;2022-11-09T09:28:31;14.90;99.90
35692;DHT22;26978;44.830;-0.674;2022-11-09T09:30:58;14.80;99.90
35692;DHT22;26978;44.830;-0.674;2022-11-09T09:33:24;14.80;99.90
35692;DHT22;26978;44.830;-0.674;2022-11-09T09:35:49;14.80;99.90
35692;DHT22;26978;44.830;-0.674;2022-11-09T09:38:15;14.80;99.90
35692;DHT22;26978;44.830;-0.674;2022-11-09T09:40:46;14.70;99.90
35692;DHT22;26978;44.830;-0.674;2022-11-09T09:43:16;14.70;99.90
35692;DHT22;26978;44.830;-0.674;2022-11-09T09:45:47;14.80;99.90
35692;DHT22;26978;44.830;-0.674;2022-11-09T09:48:29;14.70;99.90
35692;DHT22;26978;44.830;-0.674;2022-11-09T09:50:58;14.70;99.90
35692;DHT22;26978;44.830;-0.674;2022-11-09T09:53:35;14.60;99.90
35692;DHT22;26978;44.830;-0.674;2022-11-09T09:56:08;14.60;99.90
35692;DHT22;26978;44.830;-0.674;2022-11-09T09:58:35;14.60;99.90
35692;DHT22;26978;44.830;-0.674;2022-11-09T10:01:36;14.60;99.90
35692;DHT22;26978;44.830;-0.674;2022-11-09T10:03:55;14.60;99.90
35692;DHT22;26978;44.830;-0.674;2022-11-09T10:11:53;14.50;99.90
35692;DHT22;26978;44.830;-0.674;2022-11-09T10:19:52;14.40;99.90
35692;DHT22;26978;44.830;-0.674;2022-11-09T10:22:40;14.40;99.90
35692;DHT22;26978;44.830;-0.674;2022-11-09T10:25:13;14.40;99.90
35692;DHT22;26978;44.830;-0.674;2022-11-09T10:27:41;14.40;99.90
35692;DHT22;26978;44.830;-0.674;2022-11-09T10:30:12;14.40;99.90
35692;DHT22;26978;44.830;-0.674;2022-11-09T10:32:39;14.40;99.90
35692;DHT22;26978;44.830;-0.674;2022-11-09T10:37:38;14.40;99.90
35692;DHT22;26978;44.830;-0.674;2022-11-09T10:42:32;14.40;99.90
35692;DHT22;26978;44.830;-0.674;2022-11-09T10:44:58;14.50;99.90
35692;DHT22;26978;44.830;-0.674;2022-11-09T10:47:26;14.50;99.90
35692;DHT22;26978;44.830;-0.674;2022-11-09T10:50:05;14.50;99.90
35692;DHT22;26978;44.830;-0.674;2022-11-09T10:52:32;14.60;99.90
35692;DHT22;26978;44.830;-0.674;2022-11-09T10:55:23;14.50;99.90
35692;DHT22;26978;44.830;-0.674;2022-11-09T10:57:59;14.50;99.90
35692;DHT22;26978;44.830;-0.674;2022-11-09T11:00:26;14.50;99.90
35692;DHT22;26978;44.830;-0.674;2022-11-09T11:02:52;14.50;99.90
35692;DHT22;26978;44.830;-0.674;2022-11-09T11:05:20;14.50;99.90
35692;DHT22;26978;44.830;-0.674;2022-11-09T11:07:46;14.50;99.90
35692;DHT22;26978;44.830;-0.674;2022-11-09T11:12:40;14.50;99.90
35692;DHT22;26978;44.830;-0.674;2022-11-09T11:17:44;14.70;99.90
35692;DHT22;26978;44.830;-0.674;2022-11-09T11:28:26;14.90;99.90
35692;DHT22;26978;44.830;-0.674;2022-11-09T11:30:54;15.00;99.90
35692;DHT22;26978;44.830;-0.674;2022-11-09T11:33:20;15.10;99.90
35692;DHT22;26978;44.830;-0.674;2022-11-09T11:35:52;15.10;99.90
35692;DHT22;26978;44.830;-0.674;2022-11-09T11:38:56;15.00;99.90
35692;DHT22;26978;44.830;-0.674;2022-11-09T12:14:16;14.90;99.90
35692;DHT22;26978;44.830;-0.674;2022-11-09T12:22:11;14.80;99.90
35692;DHT22;26978;44.830;-0.674;2022-11-09T12:29:49;14.80;99.90
35692;DHT22;26978;44.830;-0.674;2022-11-09T12:37:32;14.90;99.90
35692;DHT22;26978;44.830;-0.674;2022-11-09T12:45:33;15.10;99.90
35692;DHT22;26978;44.830;-0.674;2022-11-09T12:48:21;15.10;99.90
35692;DHT22;26978;44.830;-0.674;2022-11-09T12:50:44;15.30;99.90
35692;DHT22;26978;44.830;-0.674;2022-11-09T12:53:10;15.40;99.90
35692;DHT22;26978;44.830;-0.674;2022-11-09T12:58:05;15.30;99.90
35692;DHT22;26978;44.830;-0.674;2022-11-09T13:03:00;15.30;99.90
35692;DHT22;26978;44.830;-0.674;2022-11-09T13:07:52;15.50;99.90
35692;DHT22;26978;44.830;-0.674;2022-11-09T13:10:23;15.70;99.90
35692;DHT22;26978;44.830;-0.674;2022-11-09T13:12:49;15.60;99.90
35692;DHT22;26978;44.830;-0.674;2022-11-09T13:15:26;15.60;99.90
35692;DHT22;26978;44.830;-0.674;2022-11-09T13:17:54;15.70;99.90
35692;DHT22;26978;44.830;-0.674;2022-11-09T13:23:28;15.90;99.90
35692;DHT22;26978;44.830;-0.674;2022-11-09T13:25:54;16.00;99.90
35692;DHT22;26978;44.830;-0.674;2022-11-09T13:30:54;16.10;99.90
35692;DHT22;26978;44.830;-0.674;2022-11-09T13:33:25;16.20;99.90
35692;DHT22;26978;44.830;-0.674;2022-11-09T13:43:37;16.60;99.90
35692;DHT22;26978;44.830;-0.674;2022-11-09T13:46:20;16.90;99.90
35692;DHT22;26978;44.830;-0.674;2022-11-09T13:48:47;16.90;99.90
35692;DHT22;26978;44.830;-0.674;2022-11-09T13:51:17;16.90;99.90
35692;DHT22;26978;44.830;-0.674;2022-11-09T13:56:14;16.70;99.90
35692;DHT22;26978;44.830;-0.674;2022-11-09T13:58:43;16.50;99.90
35692;DHT22;26978;44.830;-0.674;2022-11-09T14:03:54;16.00;99.90
35692;DHT22;26978;44.830;-0.674;2022-11-09T14:06:20;15.90;99.90
35692;DHT22;26978;44.830;-0.674;2022-11-09T14:08:45;15.80;99.90
35692;DHT22;26978;44.830;-0.674;2022-11-09T14:21:46;15.50;99.90
35692;DHT22;26978;44.830;-0.674;2022-11-09T14:24:16;15.30;99.90
35692;DHT22;26978;44.830;-0.674;2022-11-09T14:29:53;15.00;99.90
35692;DHT22;26978;44.830;-0.674;2022-11-09T14:34:50;14.60;99.90
35692;DHT22;26978;44.830;-0.674;2022-11-09T14:37:16;14.50;99.90
35692;DHT22;26978;44.830;-0.674;2022-11-09T14:39:46;14.50;99.90
35692;DHT22;26978;44.830;-0.674;2022-11-09T14:42:13;15.00;99.90
35692;DHT22;26978;44.830;-0.674;2022-11-09T14:44:42;15.80;99.90
35692;DHT22;26978;44.830;-0.674;2022-11-09T14:47:15;15.70;99.90
35692;DHT22;26978;44.830;-0.674;2022-11-09T14:49:42;15.40;99.90
35692;DHT22;26978;44.830;-0.674;2022-11-09T14:52:09;15.70;99.90
35692;DHT22;26978;44.830;-0.674;2022-11-09T14:54:36;16.20;99.90
35692;DHT22;26978;44.830;-0.674;2022-11-09T14:57:03;16.20;99.90
35692;DHT22;26978;44.830;-0.674;2022-11-09T14:59:30;16.70;99.90
35692;DHT22;26978;44.830;-0.674;2022-11-09T15:04:21;18.20;99.90
35692;DHT22;26978;44.830;-0.674;2022-11-09T15:09:20;18.40;99.90
35692;DHT22;26978;44.830;-0.674;2022-11-09T15:11:46;18.50;99.90
35692;DHT22;26978;44.830;-0.674;2022-11-09T15:14:13;19.00;99.90
35692;DHT22;26978;44.830;-0.674;2022-11-09T15:16:39;18.20;99.90
35692;DHT22;26978;44.830;-0.674;2022-11-09T15:19:05;17.50;99.90
35692;DHT22;26978;44.830;-0.674;2022-11-09T15:21:35;17.30;99.90
35692;DHT22;26978;44.830;-0.674;2022-11-09T15:24:23;16.90;99.90
35692;DHT22;26978;44.830;-0.674;2022-11-09T15:26:48;16.80;99.90
35692;DHT22;26978;44.830;-0.674;2022-11-09T15:31:59;16.20;99.90
35692;DHT22;26978;44.830;-0.674;2022-11-09T15:34:25;15.80;99.90
35692;DHT22;26978;44.830;-0.674;2022-11-09T15:36:52;15.70;99.90
35692;DHT22;26978;44.830;-0.674;2022-11-09T15:39:19;15.60;99.90
35692;DHT22;26978;44.830;-0.674;2022-11-09T15:41:45;15.60;99.90
35692;DHT22;26978;44.830;-0.674;2022-11-09T15:44:11;15.50;99.90
35692;DHT22;26978;44.830;-0.674;2022-11-09T15:46:42;15.40;99.90
35692;DHT22;26978;44.830;-0.674;2022-11-09T15:49:13;15.30;99.90
35692;DHT22;26978;44.830;-0.674;2022-11-09T15:51:39;15.30;99.90
35692;DHT22;26978;44.830;-0.674;2022-11-09T15:54:04;15.30;99.90
35692;DHT22;26978;44.830;-0.674;2022-11-09T15:56:30;15.30;99.90
35692;DHT22;26978;44.830;-0.674;2022-11-09T15:58:55;15.20;99.90
35692;DHT22;26978;44.830;-0.674;2022-11-09T16:01:21;15.20;99.90
35692;DHT22;26978;44.830;-0.674;2022-11-09T16:03:46;15.30;99.90
35692;DHT22;26978;44.830;-0.674;2022-11-09T16:06:14;15.40;99.90
35692;DHT22;26978;44.830;-0.674;2022-11-09T16:08:50;15.30;99.90
35692;DHT22;26978;44.830;-0.674;2022-11-09T16:11:15;15.30;99.90
35692;DHT22;26978;44.830;-0.674;2022-11-09T16:13:41;15.20;99.90
35692;DHT22;26978;44.830;-0.674;2022-11-09T16:16:07;15.20;99.90
35692;DHT22;26978;44.830;-0.674;2022-11-09T16:18:33;15.10;99.90
35692;DHT22;26978;44.830;-0.674;2022-11-09T16:21:05;15.10;99.90
35692;DHT22;26978;44.830;-0.674;2022-11-09T16:23:31;15.00;99.90
35692;DHT22;26978;44.830;-0.674;2022-11-09T16:25:56;14.80;99.90
35692;DHT22;26978;44.830;-0.674;2022-11-09T16:28:22;14.60;99.90
35692;DHT22;26978;44.830;-0.674;2022-11-09T16:30:48;14.50;99.90
35692;DHT22;26978;44.830;-0.674;2022-11-09T16:33:13;14.40;99.90
35692;DHT22;26978;44.830;-0.674;2022-11-09T16:35:39;14.30;99.90
35692;DHT22;26978;44.830;-0.674;2022-11-09T16:38:04;14.10;99.90
35692;DHT22;26978;44.830;-0.674;2022-11-09T16:40:30;13.80;99.90
35692;DHT22;26978;44.830;-0.674;2022-11-09T16:42:56;13.70;99.90
35692;DHT22;26978;44.830;-0.674;2022-11-09T16:45:22;13.60;99.90
35692;DHT22;26978;44.830;-0.674;2022-11-09T16:47:49;13.60;99.90
35692;DHT22;26978;44.830;-0.674;2022-11-09T16:50:15;13.50;99.90
35692;DHT22;26978;44.830;-0.674;2022-11-09T16:52:40;13.50;99.90
35692;DHT22;26978;44.830;-0.674;2022-11-09T16:55:06;13.50;99.90
35692;DHT22;26978;44.830;-0.674;2022-11-09T16:57:33;13.50;99.90
35692;DHT22;26978;44.830;-0.674;2022-11-09T16:59:59;13.40;99.90
35692;DHT22;26978;44.830;-0.674;2022-11-09T17:02:25;13.20;99.90
35692;DHT22;26978;44.830;-0.674;2022-11-09T17:04:51;13.10;99.90
35692;DHT22;26978;44.830;-0.674;2022-11-09T17:07:16;13.10;99.90
35692;DHT22;26978;44.830;-0.674;2022-11-09T17:09:42;12.90;99.90
35692;DHT22;26978;44.830;-0.674;2022-11-09T17:12:07;12.80;99.90
35692;DHT22;26978;44.830;-0.674;2022-11-09T17:14:33;12.70;99.90
35692;DHT22;26978;44.830;-0.674;2022-11-09T17:16:59;12.70;99.90
35692;DHT22;26978;44.830;-0.674;2022-11-09T17:19:28;12.70;99.90
35692;DHT22;26978;44.830;-0.674;2022-11-09T17:21:54;12.60;99.90
35692;DHT22;26978;44.830;-0.674;2022-11-09T17:24:20;12.40;99.90
35692;DHT22;26978;44.830;-0.674;2022-11-09T17:26:45;12.20;99.90
35692;DHT22;26978;44.830;-0.674;2022-11-09T17:29:11;12.30;99.90
35692;DHT22;26978;44.830;-0.674;2022-11-09T17:31:39;12.20;99.90
35692;DHT22;26978;44.830;-0.674;2022-11-09T17:34:04;12.10;99.90